Time;durP1;ratioP1;P1;durP2;ratioP2;P2;SDS_P1;SDS_P2;PMS_P1;PMS_P2;Temp;Humidity;BMP_temperature;BMP_pressure;BME280_temperature;BME280_humidity;BME280_pressure;Samples;Min_cycle;Max_cycle;Signal;HPM_P1;HPM_P2
2023/03/03 00:00:35;;;;;;;5.88;3.45;;;;;;;5.31;71.24;94655.47;4198644;28;20083;-50
2023/03/03 00:02:37;;;;;;;4.93;3.83;;;;;;;5.26;71.25;94649.81;4197500;28;20052;-56
2023/03/03 00:04:39;;;;;;;5.78;3.47;;;;;;;5.32;70.84;94657.09;4194828;28;20510;-51
2023/03/03 00:06:44;;;;;;;6.00;4.25;;;;;;;5.18;70.90;94660.00;4191894;28;20048;-53
2023/03/03 00:08:49;;;;;;;5.40;3.83;;;;;;;5.09;71.59;94653.00;4183541;28;20475;-51
2023/03/03 00:10:51;;;;;;;4.47;3.97;;;;;;;5.04;72.34;94648.19;4189720;28;20048;-55
2023/03/03 00:12:53;;;;;;;6.18;3.95;;;;;;;4.99;72.07;94652.09;4190687;28;20084;-54
2023/03/03 00:14:55;;;;;;;6.03;3.80;;;;;;;4.96;73.09;94649.75;4208432;28;20478;-54
2023/03/03 00:17:00;;;;;;;4.78;3.88;;;;;;;4.96;72.39;94645.38;4211979;28;20533;-53
2023/03/03 00:19:02;;;;;;;4.80;3.70;;;;;;;4.94;72.36;94649.88;4210719;28;20093;-55
2023/03/03 00:21:22;;;;;;;4.82;3.97;;;;;;;4.92;73.13;94644.81;4212173;28;20052;-56
2023/03/03 00:23:34;;;;;;;5.93;4.32;;;;;;;5.06;73.08;94642.88;4193720;28;20064;-53
2023/03/03 00:25:36;;;;;;;5.25;4.20;;;;;;;5.10;72.03;94639.06;4189025;28;20652;-53
2023/03/03 00:27:44;;;;;;;5.78;4.10;;;;;;;5.05;72.72;94644.63;4192669;28;20140;-51
2023/03/03 00:29:50;;;;;;;4.90;3.95;;;;;;;5.04;72.65;94648.19;4184110;28;20099;-55
2023/03/03 00:31:52;;;;;;;7.28;4.68;;;;;;;5.06;72.29;94643.69;4189675;28;20107;-56
2023/03/03 00:34:19;;;;;;;6.50;4.38;;;;;;;5.16;72.31;94643.72;4190731;28;20097;-54
2023/03/03 00:36:27;;;;;;;5.72;4.20;;;;;;;5.22;71.63;94640.63;4189886;28;20040;-57
2023/03/03 00:38:29;;;;;;;7.32;4.72;;;;;;;5.20;72.50;94632.13;4211211;28;20597;-53
2023/03/03 00:43:16;;;;;;;5.70;4.45;;;;;;;5.27;72.03;94633.28;4179541;28;20574;-56
2023/03/03 00:45:29;;;;;;;6.10;4.32;;;;;;;5.36;72.17;94623.91;4180643;28;20507;-50
2023/03/03 00:47:34;;;;;;;5.28;4.53;;;;;;;5.40;71.48;94627.03;4192402;28;20191;-52
2023/03/03 00:49:36;;;;;;;5.82;4.75;;;;;;;5.43;71.34;94626.81;4186524;28;20580;-56
2023/03/03 00:51:38;;;;;;;5.60;4.43;;;;;;;5.45;71.82;94619.69;4207306;28;20634;-51
2023/03/03 00:53:40;;;;;;;5.70;4.72;;;;;;;5.40;71.01;94614.06;4198359;28;20049;-52
2023/03/03 00:55:42;;;;;;;5.38;4.72;;;;;;;5.37;72.15;94614.31;4181392;28;20049;-54
2023/03/03 00:57:44;;;;;;;6.00;4.57;;;;;;;5.41;71.91;94613.13;4181097;28;20103;-53
2023/03/03 00:59:45;;;;;;;7.45;5.15;;;;;;;5.46;71.38;94609.19;4180812;28;20053;-51
2023/03/03 01:01:47;;;;;;;8.82;5.78;;;;;;;5.53;71.84;94599.09;4195011;28;20052;-53
2023/03/03 01:03:52;;;;;;;6.93;5.38;;;;;;;5.52;71.09;94597.44;4191469;28;20049;-53
2023/03/03 01:05:54;;;;;;;6.80;5.10;;;;;;;5.48;71.43;94596.03;4188899;28;20090;-53
2023/03/03 01:07:58;;;;;;;6.93;5.00;;;;;;;5.53;71.99;94599.09;4195900;28;20102;-52
2023/03/03 01:10:00;;;;;;;7.85;6.10;;;;;;;5.51;71.30;94593.19;4197068;28;20455;-56
2023/03/03 01:12:05;;;;;;;7.30;5.43;;;;;;;5.54;71.69;94598.13;4195187;28;20536;-52
2023/03/03 01:14:07;;;;;;;6.50;4.90;;;;;;;5.54;71.51;94593.75;4189570;28;20084;-53
2023/03/03 01:16:09;;;;;;;7.38;4.85;;;;;;;5.51;70.96;94590.59;4203451;28;20070;-50
2023/03/03 01:18:11;;;;;;;6.97;4.97;;;;;;;5.56;71.25;94595.41;4184737;28;20129;-54
2023/03/03 01:20:14;;;;;;;7.63;5.60;;;;;;;5.53;71.55;94591.31;4213359;28;20130;-55
2023/03/03 01:22:16;;;;;;;7.20;5.38;;;;;;;5.47;70.76;94587.44;4212715;28;20044;-54
2023/03/03 01:24:17;;;;;;;7.43;5.20;;;;;;;5.47;71.15;94597.81;4200475;28;20052;-58
2023/03/03 01:26:22;;;;;;;7.22;5.70;;;;;;;5.46;71.43;94593.59;4208213;28;20104;-58
2023/03/03 01:28:24;;;;;;;6.13;4.95;;;;;;;5.50;71.16;94599.34;4184483;28;20048;-58
2023/03/03 01:30:26;;;;;;;6.50;4.68;;;;;;;5.52;70.99;94597.44;4205446;28;20509;-58
2023/03/03 01:32:28;;;;;;;7.72;5.40;;;;;;;5.38;71.61;94601.22;4211401;28;20064;-57
2023/03/03 01:34:30;;;;;;;6.60;4.93;;;;;;;5.43;71.92;94603.41;4200355;28;20066;-56
2023/03/03 01:36:32;;;;;;;7.53;5.65;;;;;;;5.44;72.03;94587.72;4212266;28;20073;-60
2023/03/03 01:38:35;;;;;;;6.15;5.22;;;;;;;5.50;71.36;94592.34;4206435;28;20052;-58
2023/03/03 01:40:37;;;;;;;7.93;5.65;;;;;;;5.51;71.32;94590.59;4195375;28;20110;-57
2023/03/03 01:42:39;;;;;;;7.30;5.28;;;;;;;5.58;71.29;94586.53;4194924;28;20510;-58
2023/03/03 01:44:41;;;;;;;7.20;5.40;;;;;;;5.62;70.88;94590.50;4197929;28;20127;-59
2023/03/03 01:47:19;;;;;;;7.05;5.05;;;;;;;5.63;70.57;94583.53;4211600;28;20476;-58
2023/03/03 01:49:25;;;;;;;8.38;5.15;;;;;;;5.62;71.62;94587.09;4183335;28;20048;-56
2023/03/03 01:51:42;;;;;;;6.75;5.47;;;;;;;5.47;70.96;94584.84;4194210;28;20132;-58
2023/03/03 01:53:50;;;;;;;7.90;5.55;;;;;;;5.33;71.89;94587.78;4194335;28;20059;-57
2023/03/03 01:55:53;;;;;;;8.45;6.03;;;;;;;5.19;72.34;94582.94;4193274;28;20054;-57
2023/03/03 01:58:04;;;;;;;8.70;5.90;;;;;;;5.12;72.68;94582.63;4194410;28;20088;-58
2023/03/03 02:00:06;;;;;;;8.60;5.97;;;;;;;5.00;73.50;94576.69;4195657;28;20052;-56
2023/03/03 02:02:08;;;;;;;7.90;5.78;;;;;;;5.04;73.63;94579.84;4195946;28;20529;-57
2023/03/03 02:04:10;;;;;;;7.65;5.95;;;;;;;5.08;72.97;94581.25;4211778;28;20498;-56
2023/03/03 02:06:15;;;;;;;8.15;6.55;;;;;;;5.13;73.01;94582.50;4197312;28;20250;-59
2023/03/03 02:08:22;;;;;;;8.07;5.68;;;;;;;5.21;73.12;94574.06;4190372;28;20052;-59
2023/03/03 02:10:25;;;;;;;7.75;5.88;;;;;;;5.29;73.02;94576.84;4192971;28;20131;-50
2023/03/03 02:12:48;;;;;;;6.88;5.60;;;;;;;5.33;72.47;94580.84;4185461;28;20156;-52
2023/03/03 02:14:50;;;;;;;8.65;5.97;;;;;;;5.36;72.72;94574.53;4178020;28;20542;-53
2023/03/03 02:16:52;;;;;;;7.65;5.63;;;;;;;5.37;72.25;94583.97;4211289;28;20054;-51
2023/03/03 02:18:53;;;;;;;6.85;5.32;;;;;;;5.41;71.97;94580.16;4211618;28;20069;-54
2023/03/03 02:21:16;;;;;;;9.98;5.88;;;;;;;5.49;71.94;94582.13;4194617;28;20514;-54
2023/03/03 02:23:42;;;;;;;7.68;5.60;;;;;;;5.46;71.38;94583.22;4181501;28;20083;-51
2023/03/03 02:25:56;;;;;;;7.72;6.20;;;;;;;5.46;71.53;94579.75;4205395;28;20048;-58
2023/03/03 02:28:00;;;;;;;7.05;5.32;;;;;;;5.47;71.90;94584.03;4210964;28;20056;-58
2023/03/03 02:30:13;;;;;;;8.82;6.07;;;;;;;5.49;71.86;94587.31;4211958;28;20631;-60
2023/03/03 02:32:15;;;;;;;7.93;5.70;;;;;;;5.38;71.24;94579.59;4205815;28;20117;-57
2023/03/03 02:34:17;;;;;;;7.45;5.22;;;;;;;5.39;72.42;94586.44;4211124;28;20107;-58
2023/03/03 02:36:27;;;;;;;6.20;5.18;;;;;;;5.40;72.20;94585.47;4202925;28;20041;-57
2023/03/03 02:38:47;;;;;;;7.65;5.70;;;;;;;5.37;71.76;94583.97;4178657;28;20128;-57
2023/03/03 02:41:08;;;;;;;6.45;5.05;;;;;;;5.40;71.66;94588.06;4180598;28;20068;-57
2023/03/03 02:43:10;;;;;;;7.43;5.18;;;;;;;5.41;72.12;94582.75;4187103;28;20057;-58
2023/03/03 02:45:12;;;;;;;7.88;5.13;;;;;;;5.42;71.36;94583.56;4190226;28;20087;-58
2023/03/03 02:47:14;;;;;;;6.82;5.00;;;;;;;5.46;72.02;94584.97;4194348;28;20071;-55
2023/03/03 02:49:19;;;;;;;8.73;5.15;;;;;;;5.51;71.34;94580.22;4197879;28;20048;-61
2023/03/03 02:51:21;;;;;;;6.93;5.30;;;;;;;5.59;71.07;94576.94;4203196;28;20131;-57
2023/03/03 02:53:23;;;;;;;6.72;5.05;;;;;;;5.63;71.34;94584.34;4198351;28;20068;-58
2023/03/03 02:55:25;;;;;;;7.93;5.13;;;;;;;5.69;71.35;94580.41;4212154;28;20121;-56
2023/03/03 02:57:27;;;;;;;6.35;5.25;;;;;;;5.74;70.59;94580.81;4212220;28;20185;-58
2023/03/03 02:59:29;;;;;;;6.80;5.03;;;;;;;5.71;70.20;94578.50;4197306;28;20048;-59
2023/03/03 03:01:35;;;;;;;7.53;4.90;;;;;;;5.71;70.39;94576.72;4193929;28;20049;-56
2023/03/03 03:03:37;;;;;;;6.50;5.05;;;;;;;5.71;70.44;94568.09;4178437;28;20443;-57
2023/03/03 03:05:39;;;;;;;7.13;5.40;;;;;;;5.69;70.75;94576.03;4178858;28;20654;-55
2023/03/03 03:07:41;;;;;;;7.45;4.88;;;;;;;5.73;71.05;94567.00;4178082;28;20103;-59
2023/03/03 03:09:42;;;;;;;6.43;4.88;;;;;;;5.75;70.45;94570.28;4180927;28;20702;-58
2023/03/03 03:11:44;;;;;;;7.03;4.82;;;;;;;5.78;70.24;94564.00;4206724;28;20097;-59
2023/03/03 03:13:46;;;;;;;6.03;4.82;;;;;;;5.80;70.67;94572.50;4185995;28;20044;-60
2023/03/03 03:15:48;;;;;;;6.85;5.32;;;;;;;5.83;71.33;94566.19;4181981;28;20077;-58
2023/03/03 03:17:50;;;;;;;6.38;4.60;;;;;;;5.83;70.75;94571.41;4183428;28;20489;-58
2023/03/03 03:19:52;;;;;;;6.93;4.90;;;;;;;5.83;70.91;94561.84;4184506;28;20045;-59
2023/03/03 03:21:54;;;;;;;7.28;5.35;;;;;;;5.76;71.21;94571.09;4192270;28;20056;-57
2023/03/03 03:23:56;;;;;;;6.65;5.28;;;;;;;5.62;71.46;94572.31;4190096;28;20140;-59
2023/03/03 03:25:58;;;;;;;7.55;5.65;;;;;;;5.53;71.43;94568.72;4179416;28;20047;-60
2023/03/03 03:27:59;;;;;;;6.43;5.35;;;;;;;5.51;71.79;94562.84;4201630;28;20052;-58
2023/03/03 03:30:01;;;;;;;7.45;5.70;;;;;;;5.56;72.35;94569.41;4210924;28;20055;-57
2023/03/03 03:32:03;;;;;;;7.90;5.50;;;;;;;5.61;72.47;94565.44;4211789;28;20059;-58
2023/03/03 03:34:04;;;;;;;8.23;6.00;;;;;;;5.66;72.73;94567.69;4210582;28;20097;-56
2023/03/03 03:36:07;;;;;;;8.23;6.28;;;;;;;5.72;72.47;94565.38;4210078;28;20050;-58
2023/03/03 03:38:09;;;;;;;7.78;6.03;;;;;;;5.74;71.87;94557.41;4210717;28;20051;-57
2023/03/03 03:40:11;;;;;;;7.80;6.10;;;;;;;5.80;72.18;94561.28;4214253;28;20129;-60
2023/03/03 03:42:13;;;;;;;7.78;6.07;;;;;;;5.84;72.46;94552.25;4214166;28;20064;-59
2023/03/03 03:44:14;;;;;;;9.07;6.38;;;;;;;5.85;72.07;94553.88;4201298;28;20101;-54
2023/03/03 03:46:16;;;;;;;8.70;6.18;;;;;;;5.85;71.90;94548.69;4213480;28;20036;-50
2023/03/03 03:48:18;;;;;;;9.10;5.97;;;;;;;5.84;71.97;94550.47;4200458;28;20084;-51
2023/03/03 03:50:20;;;;;;;8.20;6.15;;;;;;;5.87;72.06;94544.19;4213140;28;20117;-52
2023/03/03 03:52:22;;;;;;;9.32;6.68;;;;;;;5.91;71.97;94550.75;4202452;28;20088;-54
2023/03/03 03:54:24;;;;;;;7.57;6.45;;;;;;;5.90;72.13;94549.13;4210860;28;20131;-51
2023/03/03 03:56:26;;;;;;;9.50;6.88;;;;;;;5.84;72.20;94547.06;4197811;28;20052;-53
2023/03/03 03:58:28;;;;;;;8.55;6.20;;;;;;;5.80;71.88;94550.88;4189762;28;20053;-52
2023/03/03 04:00:30;;;;;;;8.57;5.85;;;;;;;5.71;71.84;94548.13;4181305;28;20045;-52
2023/03/03 04:02:32;;;;;;;21.23;13.93;;;;;;;5.60;72.99;94552.63;4182141;28;20048;-55
2023/03/03 04:04:34;;;;;;;11.40;7.45;;;;;;;5.59;73.24;94550.97;4193054;28;20136;-52
2023/03/03 04:06:36;;;;;;;9.48;5.97;;;;;;;5.61;73.62;94536.88;4188250;28;20045;-49
2023/03/03 04:08:37;;;;;;;8.48;6.57;;;;;;;5.57;72.72;94545.06;4208129;28;20083;-55
2023/03/03 04:10:39;;;;;;;10.65;7.38;;;;;;;5.50;72.82;94548.19;4204764;28;20127;-56
2023/03/03 04:12:41;;;;;;;10.43;6.97;;;;;;;5.49;73.04;94546.56;4209157;28;20048;-52
2023/03/03 04:14:43;;;;;;;9.70;7.28;;;;;;;5.50;73.59;94542.19;4190489;28;20055;-53
2023/03/03 04:16:45;;;;;;;9.73;6.90;;;;;;;5.49;72.83;94549.16;4190865;28;20447;-50
2023/03/03 04:18:47;;;;;;;9.93;6.80;;;;;;;5.52;72.81;94542.88;4197189;28;20049;-57
2023/03/03 04:20:49;;;;;;;9.40;7.03;;;;;;;5.53;72.69;94547.13;4184047;28;20139;-57
2023/03/03 04:22:50;;;;;;;9.57;7.53;;;;;;;5.49;72.95;94543.97;4186041;28;20131;-59
2023/03/03 04:24:52;;;;;;;9.40;6.47;;;;;;;5.52;73.32;94548.88;4202477;28;20043;-58
2023/03/03 04:26:54;;;;;;;10.02;7.50;;;;;;;5.56;73.01;94544.25;4196293;28;20052;-57
2023/03/03 04:28:57;;;;;;;9.25;7.10;;;;;;;5.56;72.95;94548.63;4186491;28;20758;-59
2023/03/03 04:30:59;;;;;;;11.75;6.97;;;;;;;5.57;73.22;94545.06;4197250;28;20048;-61
2023/03/03 04:33:01;;;;;;;9.80;7.80;;;;;;;5.55;73.23;94540.03;4196911;28;20048;-58
2023/03/03 04:35:03;;;;;;;10.15;7.68;;;;;;;5.56;72.96;94538.25;4186637;28;20064;-60
2023/03/03 04:37:09;;;;;;;9.95;7.28;;;;;;;5.57;73.12;94539.88;4193725;28;20103;-60
2023/03/03 04:39:11;;;;;;;12.07;7.45;;;;;;;5.60;72.93;94537.84;4201132;28;20055;-59
2023/03/03 04:41:13;;;;;;;13.23;7.55;;;;;;;5.62;73.73;94538.53;4201104;28;20051;-60
2023/03/03 04:43:15;;;;;;;10.75;8.30;;;;;;;5.68;73.66;94532.81;4199928;28;20434;-58
2023/03/03 04:45:17;;;;;;;10.52;8.00;;;;;;;5.70;73.02;94541.28;4191012;28;20045;-58
2023/03/03 04:47:18;;;;;;;10.57;8.15;;;;;;;5.74;73.01;94539.22;4188695;28;20058;-53
2023/03/03 04:49:20;;;;;;;11.07;7.72;;;;;;;5.80;73.09;94537.88;4203677;28;20109;-52
2023/03/03 04:51:23;;;;;;;10.38;8.32;;;;;;;5.83;73.00;94540.19;4199498;28;20490;-52
2023/03/03 04:53:24;;;;;;;10.63;6.90;;;;;;;5.77;72.83;94540.75;4202365;28;20079;-54
2023/03/03 04:55:26;;;;;;;9.32;7.03;;;;;;;5.71;72.84;94545.53;4203156;28;20048;-53
2023/03/03 04:57:28;;;;;;;9.05;7.10;;;;;;;5.71;72.71;94542.09;4205618;28;20048;-54
2023/03/03 04:59:29;;;;;;;10.65;7.72;;;;;;;5.72;73.38;94543.72;4213158;28;20075;-54
2023/03/03 05:01:31;;;;;;;11.23;8.00;;;;;;;5.76;73.49;94542.50;4200833;28;20415;-53
2023/03/03 05:03:33;;;;;;;12.30;8.60;;;;;;;5.83;73.57;94545.41;4189334;28;20094;-58
2023/03/03 05:05:34;;;;;;;12.57;8.88;;;;;;;5.80;73.20;94541.28;4183744;28;20049;-58
2023/03/03 05:07:39;;;;;;;13.63;9.18;;;;;;;5.79;73.14;94544.88;4192344;28;20517;-59
2023/03/03 05:09:41;;;;;;;12.70;8.82;;;;;;;5.82;73.31;94546.38;4194287;28;20176;-60
2023/03/03 05:11:42;;;;;;;12.10;9.30;;;;;;;5.81;73.06;94547.31;4200613;28;20510;-57
2023/03/03 05:13:44;;;;;;;13.80;9.70;;;;;;;5.75;73.39;94552.09;4199820;28;20541;-59
2023/03/03 05:15:55;;;;;;;11.98;8.98;;;;;;;5.78;72.94;94552.78;4204174;28;20489;-56
2023/03/03 05:17:57;;;;;;;12.20;8.85;;;;;;;5.79;73.11;94549.25;4211858;28;20048;-59
2023/03/03 05:19:59;;;;;;;11.80;8.98;;;;;;;5.81;73.61;94547.31;4212730;28;20047;-58
2023/03/03 05:22:00;;;;;;;13.82;9.20;;;;;;;5.82;73.95;94552.38;4212657;28;20047;-61
2023/03/03 05:24:02;;;;;;;12.55;9.25;;;;;;;5.88;73.67;94553.63;4212720;28;20052;-58
2023/03/03 05:26:04;;;;;;;13.82;9.35;;;;;;;5.93;73.37;94547.06;4200177;28;20146;-59
2023/03/03 05:28:06;;;;;;;12.98;9.10;;;;;;;5.91;73.77;94548.16;4212052;28;20093;-59
2023/03/03 05:30:10;;;;;;;12.75;9.85;;;;;;;5.99;73.02;94561.34;4213222;28;20097;-60
2023/03/03 05:32:11;;;;;;;12.20;8.60;;;;;;;5.96;73.38;94556.44;4213051;28;20048;-61
2023/03/03 05:34:13;;;;;;;12.32;8.05;;;;;;;5.95;73.36;94558.19;4210577;28;20087;-58
2023/03/03 05:36:15;;;;;;;11.70;9.07;;;;;;;5.94;73.54;94551.34;4212327;28;20056;-59
2023/03/03 05:38:16;;;;;;;14.43;9.60;;;;;;;5.91;72.73;94558.56;4212541;28;20504;-60
2023/03/03 05:40:18;;;;;;;11.60;8.77;;;;;;;5.87;73.45;94552.81;4212496;28;20078;-60
2023/03/03 05:42:20;;;;;;;11.20;8.35;;;;;;;5.85;73.49;94556.50;4198732;28;20048;-58
2023/03/03 05:44:22;;;;;;;13.48;9.48;;;;;;;5.86;74.23;94555.56;4212761;28;20056;-60
2023/03/03 05:46:24;;;;;;;12.43;9.60;;;;;;;5.94;74.16;94564.34;4196515;28;20060;-59
2023/03/03 05:48:27;;;;;;;15.70;10.05;;;;;;;5.99;73.65;94566.53;4190288;28;20131;-60
2023/03/03 05:50:28;;;;;;;13.15;9.07;;;;;;;5.97;73.57;94563.25;4199242;28;20075;-58
2023/03/03 05:52:30;;;;;;;13.25;9.98;;;;;;;5.88;73.09;94564.03;4200293;28;20049;-57
2023/03/03 05:54:32;;;;;;;12.48;8.93;;;;;;;5.89;73.87;94561.31;4210677;28;20048;-58
2023/03/03 05:56:33;;;;;;;12.23;8.98;;;;;;;5.85;73.31;94562.53;4212812;28;20052;-59
2023/03/03 05:58:35;;;;;;;11.40;7.75;;;;;;;5.72;73.29;94567.13;4212276;28;20048;-60
2023/03/03 06:00:37;;;;;;;10.75;8.00;;;;;;;5.67;72.95;94566.72;4212228;28;20116;-57
2023/03/03 06:02:40;;;;;;;10.63;7.47;;;;;;;5.67;73.15;94575.31;4209308;28;20067;-56
2023/03/03 06:04:42;;;;;;;11.23;7.63;;;;;;;5.65;73.10;94568.63;4201068;28;20113;-54
2023/03/03 06:06:43;;;;;;;11.20;8.30;;;;;;;5.68;73.01;94564.00;4202241;28;20044;-52
2023/03/03 06:08:45;;;;;;;10.27;7.10;;;;;;;5.73;72.93;94567.00;4195284;28;20056;-50
2023/03/03 06:10:47;;;;;;;10.30;7.78;;;;;;;5.73;73.22;94555.78;4196845;28;20084;-55
2023/03/03 06:12:48;;;;;;;12.48;8.70;;;;;;;5.75;73.31;94559.09;4202511;28;20047;-52
2023/03/03 06:14:50;;;;;;;12.63;7.95;;;;;;;5.77;73.77;94571.97;4196086;28;20056;-55
2023/03/03 06:16:51;;;;;;;13.63;9.07;;;;;;;5.74;73.61;94573.88;4204395;28;20081;-52
2023/03/03 06:18:53;;;;;;;10.73;8.57;;;;;;;5.75;73.44;94572.06;4204048;28;20048;-54
2023/03/03 06:20:55;;;;;;;13.13;9.43;;;;;;;5.82;74.30;94561.97;4206111;28;20504;-54
2023/03/03 06:22:56;;;;;;;13.00;9.50;;;;;;;5.84;73.71;94573.88;4210916;28;20058;-53
2023/03/03 06:24:58;;;;;;;15.20;10.40;;;;;;;5.89;73.98;94574.31;4212444;28;20055;-55
2023/03/03 06:27:00;;;;;;;15.60;10.13;;;;;;;5.93;73.44;94573.06;4212093;28;20044;-54
2023/03/03 06:29:02;;;;;;;18.52;10.20;;;;;;;5.89;73.42;94569.13;4211948;28;20125;-54
2023/03/03 06:31:04;;;;;;;16.65;11.32;;;;;;;5.89;73.35;94573.47;4211427;28;20062;-60
2023/03/03 06:33:06;;;;;;;18.10;12.30;;;;;;;5.87;73.17;94578.81;4211290;28;20044;-57
2023/03/03 06:35:08;;;;;;;15.50;10.73;;;;;;;5.83;72.82;94574.00;4210934;28;20511;-57
2023/03/03 06:37:10;;;;;;;14.65;9.98;;;;;;;5.83;73.49;94572.25;4211244;28;20139;-58
2023/03/03 06:39:11;;;;;;;14.88;11.05;;;;;;;5.86;73.52;94579.75;4207654;28;20044;-59
2023/03/03 06:41:13;;;;;;;14.27;10.00;;;;;;;5.90;73.07;94580.31;4200749;28;20047;-61
2023/03/03 06:43:15;;;;;;;15.68;11.05;;;;;;;5.93;72.88;94582.66;4212062;28;20482;-59
2023/03/03 06:45:16;;;;;;;14.68;10.45;;;;;;;5.87;72.72;94585.78;4211959;28;20052;-60
2023/03/03 06:47:18;;;;;;;16.48;10.57;;;;;;;5.72;73.29;94586.16;4194856;28;20084;-59
2023/03/03 06:49:20;;;;;;;17.75;11.48;;;;;;;5.67;74.29;94588.31;4195088;28;20132;-56
2023/03/03 06:51:33;;;;;;;15.73;12.07;;;;;;;5.66;73.85;94576.28;4185097;28;20053;-56
2023/03/03 06:53:35;;;;;;;15.93;11.73;;;;;;;5.72;74.04;94586.16;4195123;28;20049;-58
2023/03/03 06:55:37;;;;;;;16.75;11.43;;;;;;;5.80;74.27;94582.06;4184833;28;20052;-60
2023/03/03 06:57:40;;;;;;;17.52;11.35;;;;;;;5.78;74.24;94586.59;4179243;28;20129;-60
2023/03/03 06:59:41;;;;;;;14.70;10.55;;;;;;;5.82;74.61;94590.56;4194278;28;20086;-62
2023/03/03 07:01:44;;;;;;;17.77;12.10;;;;;;;5.88;75.87;94590.03;4195579;28;20082;-59
2023/03/03 07:03:45;;;;;;;18.00;10.75;;;;;;;5.90;75.51;94586.34;4182890;28;20137;-58
2023/03/03 07:05:47;;;;;;;15.02;10.10;;;;;;;5.93;75.53;94587.84;4180193;28;20053;-56
2023/03/03 07:07:49;;;;;;;13.18;10.70;;;;;;;5.96;75.48;94587.63;4189503;28;20056;-58
2023/03/03 07:09:55;;;;;;;12.95;9.18;;;;;;;5.99;75.37;94592.56;4179479;28;20083;-60
2023/03/03 07:12:04;;;;;;;18.65;10.50;;;;;;;6.11;75.59;94586.28;4178790;28;20099;-59
2023/03/03 07:14:13;;;;;;;16.63;10.95;;;;;;;6.25;75.33;94586.84;4181515;28;20518;-58
2023/03/03 07:16:16;;;;;;;14.80;10.20;;;;;;;6.33;73.73;94589.59;4203427;28;20052;-60
2023/03/03 07:18:51;;;;;;;14.07;10.15;;;;;;;6.34;72.88;94591.22;4210097;28;20047;-58
2023/03/03 07:20:53;;;;;;;15.35;10.80;;;;;;;6.43;73.52;94590.44;4164548;28;20048;-57
2023/03/03 07:22:55;;;;;;;17.65;10.23;;;;;;;6.49;73.11;94587.25;4197369;28;20140;-62
2023/03/03 07:25:00;;;;;;;14.57;9.80;;;;;;;6.49;73.52;94589.88;4182270;28;20048;-59
2023/03/03 07:27:09;;;;;;;13.63;10.20;;;;;;;6.55;73.70;94583.28;4182232;28;20079;-60
2023/03/03 07:29:27;;;;;;;12.38;8.50;;;;;;;6.55;72.36;94591.09;4192634;28;20052;-61
2023/03/03 07:31:41;;;;;;;11.82;8.63;;;;;;;6.50;72.69;94585.50;4182330;28;20060;-61
2023/03/03 07:33:46;;;;;;;11.63;8.25;;;;;;;6.51;72.67;94587.13;4189721;28;20066;-59
2023/03/03 07:35:47;;;;;;;10.20;8.07;;;;;;;6.36;71.88;94584.09;4185710;28;20084;-62
2023/03/03 07:37:49;;;;;;;14.23;8.48;;;;;;;6.14;72.01;94580.81;4180892;28;20049;-61
2023/03/03 07:39:51;;;;;;;15.00;10.40;;;;;;;6.17;73.43;94586.69;4187922;28;20499;-60
2023/03/03 07:42:07;;;;;;;14.00;8.60;;;;;;;6.23;73.21;94586.16;4188356;28;20286;-61
2023/03/03 07:44:18;;;;;;;12.98;8.90;;;;;;;6.32;73.09;94585.34;4183820;28;20090;-61
2023/03/03 07:46:22;;;;;;;10.00;7.75;;;;;;;6.41;72.69;94581.94;4190520;28;20060;-59
2023/03/03 07:48:43;;;;;;;9.55;7.45;;;;;;;6.47;72.16;94586.56;4193368;28;20045;-59
2023/03/03 07:50:44;;;;;;;10.15;7.80;;;;;;;6.53;72.34;94574.81;4181434;28;20091;-58
2023/03/03 07:52:55;;;;;;;14.50;9.57;;;;;;;6.61;72.29;94576.72;4194465;28;20613;-62
2023/03/03 07:55:00;;;;;;;13.13;8.90;;;;;;;6.56;71.41;94575.38;4209636;28;20131;-59
2023/03/03 07:57:21;;;;;;;14.98;9.98;;;;;;;6.61;72.10;94576.72;4198291;28;20048;-60
2023/03/03 07:59:24;;;;;;;14.73;9.63;;;;;;;6.61;71.98;94581.94;4197870;28;20044;-59
2023/03/03 08:01:35;;;;;;;16.10;9.60;;;;;;;6.64;71.98;94573.84;4198508;28;20048;-60
2023/03/03 08:03:36;;;;;;;16.15;11.65;;;;;;;6.67;72.23;94581.38;4186360;28;20110;-61
2023/03/03 08:05:48;;;;;;;18.13;10.38;;;;;;;6.49;71.42;94570.81;4194469;28;20040;-60
2023/03/03 08:07:50;;;;;;;14.55;10.07;;;;;;;6.27;71.65;94570.13;4180676;28;20517;-58
2023/03/03 08:10:00;;;;;;;14.15;10.27;;;;;;;6.07;72.40;94568.50;4190396;28;20044;-63
2023/03/03 08:12:05;;;;;;;15.45;10.23;;;;;;;5.93;72.84;94573.06;4182936;28;20091;-60
2023/03/03 08:14:09;;;;;;;19.27;12.82;;;;;;;5.84;73.46;94581.66;4181137;28;20132;-61
2023/03/03 08:16:11;;;;;;;14.68;10.80;;;;;;;5.80;73.42;94576.88;4202346;28;20078;-61
2023/03/03 08:18:33;;;;;;;17.15;10.00;;;;;;;5.78;72.93;94574.41;4211325;28;20127;-57
2023/03/03 08:20:38;;;;;;;15.70;10.73;;;;;;;5.87;73.28;94575.38;4204190;28;20080;-58
2023/03/03 08:22:41;;;;;;;14.60;10.63;;;;;;;5.99;73.49;94566.53;4212876;28;20055;-60
2023/03/03 08:24:43;;;;;;;15.57;10.80;;;;;;;6.10;73.53;94563.81;4195723;28;20052;-60
2023/03/03 08:26:45;;;;;;;15.02;10.93;;;;;;;6.18;72.94;94568.34;4193271;28;20055;-61
2023/03/03 08:28:46;;;;;;;13.10;10.02;;;;;;;6.08;73.06;94567.53;4188812;28;20037;-60
2023/03/03 08:30:49;;;;;;;14.15;9.80;;;;;;;6.08;72.69;94568.34;4196542;28;20664;-60
2023/03/03 08:32:51;;;;;;;19.95;10.18;;;;;;;6.10;72.99;94563.00;4194877;28;20530;-61
2023/03/03 08:34:52;;;;;;;15.75;10.63;;;;;;;6.13;72.85;94562.72;4187235;28;20463;-59
2023/03/03 08:36:57;;;;;;;15.07;10.55;;;;;;;6.05;72.47;94560.81;4196959;28;20059;-61
2023/03/03 08:38:58;;;;;;;14.88;11.00;;;;;;;5.95;72.74;94558.19;4184621;28;20442;-59
2023/03/03 08:41:00;;;;;;;16.23;11.73;;;;;;;5.87;73.21;94558.03;4181434;28;20049;-60
2023/03/03 08:43:02;;;;;;;14.68;10.38;;;;;;;5.87;73.87;94562.38;4187538;28;20049;-62
2023/03/03 08:45:04;;;;;;;16.30;11.18;;;;;;;5.68;74.01;94569.19;4197612;28;20044;-60
2023/03/03 08:47:12;;;;;;;14.73;11.23;;;;;;;5.72;74.09;94567.97;4185634;28;20055;-59
2023/03/03 08:49:13;;;;;;;16.17;10.82;;;;;;;5.72;73.86;94567.13;4202980;28;20070;-58
2023/03/03 08:51:15;;;;;;;17.92;12.00;;;;;;;5.66;74.62;94565.91;4214236;28;20451;-58
2023/03/03 08:53:18;;;;;;;18.75;11.95;;;;;;;5.56;74.83;94570.25;4196684;28;20220;-59
2023/03/03 08:55:20;;;;;;;18.38;13.23;;;;;;;5.60;75.22;94566.44;4205507;28;20055;-59
2023/03/03 08:57:22;;;;;;;16.98;12.75;;;;;;;5.61;75.44;94569.84;4213239;28;20054;-58
2023/03/03 08:59:26;;;;;;;17.92;12.07;;;;;;;5.49;75.69;94571.72;4198997;28;20095;-58
2023/03/03 09:01:32;;;;;;;16.42;11.77;;;;;;;5.49;75.23;94563.94;4212203;28;20055;-61
2023/03/03 09:03:33;;;;;;;57.13;38.45;;;;;;;5.61;77.01;94570.66;4210196;28;20059;-54
2023/03/03 09:05:37;;;;;;;28.58;18.00;;;;;;;5.91;77.77;94563.75;4212177;28;20061;-58
2023/03/03 09:07:39;;;;;;;21.42;13.98;;;;;;;6.00;75.31;94565.59;4198978;28;20525;-58
2023/03/03 09:09:41;;;;;;;20.58;14.80;;;;;;;6.04;75.54;94564.34;4213216;28;20453;-60
2023/03/03 09:11:43;;;;;;;21.67;14.68;;;;;;;5.89;74.84;94561.31;4211270;28;20122;-60
2023/03/03 09:13:44;;;;;;;17.20;12.10;;;;;;;5.90;74.65;94556.94;4202647;28;20041;-60
2023/03/03 09:15:47;;;;;;;18.88;12.82;;;;;;;5.94;75.44;94561.75;4204586;28;20048;-61
2023/03/03 09:17:50;;;;;;;16.45;11.98;;;;;;;5.75;74.57;94562.50;4212261;28;20054;-59
2023/03/03 09:19:57;;;;;;;18.95;12.95;;;;;;;5.82;74.44;94560.19;4210988;28;20044;-59
2023/03/03 09:22:10;;;;;;;19.67;13.15;;;;;;;5.73;76.00;94564.41;4184702;28;20044;-57
2023/03/03 09:24:30;;;;;;;18.15;13.57;;;;;;;5.80;75.87;94558.69;4195387;28;20147;-60
2023/03/03 09:26:47;;;;;;;21.05;12.27;;;;;;;5.78;74.75;94560.59;4180269;28;20049;-63
2023/03/03 09:28:49;;;;;;;21.67;13.63;;;;;;;5.79;75.29;94559.66;4179780;28;20041;-59
2023/03/03 09:30:52;;;;;;;17.58;12.07;;;;;;;5.84;75.36;94560.06;4192582;28;20739;-62
2023/03/03 09:32:55;;;;;;;16.92;12.02;;;;;;;5.90;74.87;94560.34;4195387;28;20409;-60
2023/03/03 09:34:57;;;;;;;17.25;12.60;;;;;;;6.04;75.05;94559.16;4195528;28;20048;-61
2023/03/03 09:36:58;;;;;;;18.10;12.68;;;;;;;6.20;74.54;94560.44;4195870;28;20048;-61
2023/03/03 09:39:12;;;;;;;18.75;13.13;;;;;;;6.39;74.32;94557.00;4196881;28;20052;-62
2023/03/03 09:41:41;;;;;;;33.00;21.55;;;;;;;6.59;74.02;94561.25;4180095;28;20060;-59
2023/03/03 09:44:16;;;;;;;18.95;12.20;;;;;;;6.69;72.68;94553.41;4193225;28;20048;-57
2023/03/03 09:46:48;;;;;;;14.73;10.95;;;;;;;6.77;72.21;94556.16;4180979;28;20438;-61
2023/03/03 09:49:28;;;;;;;59.70;34.88;;;;;;;6.79;72.68;94554.22;4190903;28;20107;-56